Amelia, Virginia
Current Conditions -  °F | °C
As of 8:55 AM on Thursday 23 Oct 2014 (Local Time) from KW81 Reporting Station
Clear Clear  
Wind Chill: 11°   Ceiling: Unl
Heat Index: 11°   Visibility: 10mi
Dew Point:   Wind: 7mph
Humidity: 66%   Direction: 290°WNW
Pressure: 29.98"   Gusts: NA
Location:  37.3498°N, 77.9661°W
Report Text: KW81 231255Z AUTO 29006KT 10SM CLR 11/05 A2998 RMK AO1 T01060045
Loading
Personal Weather Stations






























Interactive Weather Map
Tropical Storm Tracking
New forecast layout! Learn more

10-Day Weather Forecast

Advertisements
Track Severe Weather on mobile